sensor_id;sensor_type;location;lat;lon;timestamp;pressure;altitude;pressure_sealevel;temperature;humidity
20119;BME280;10220;42.716;23.306;2023-09-19T00:01:41;95640.56;;;17.20;100.00
20119;BME280;10220;42.716;23.306;2023-09-19T00:04:09;95635.91;;;17.22;100.00
20119;BME280;10220;42.716;23.306;2023-09-19T00:06:36;95635.38;;;17.09;100.00
20119;BME280;10220;42.716;23.306;2023-09-19T00:09:02;95633.69;;;17.03;100.00
20119;BME280;10220;42.716;23.306;2023-09-19T00:11:28;95631.03;;;17.14;100.00
20119;BME280;10220;42.716;23.306;2023-09-19T00:13:54;95646.28;;;17.17;100.00
20119;BME280;10220;42.716;23.306;2023-09-19T00:16:20;95641.53;;;17.26;100.00
20119;BME280;10220;42.716;23.306;2023-09-19T00:18:46;95631.94;;;17.31;100.00
20119;BME280;10220;42.716;23.306;2023-09-19T00:21:12;95618.84;;;17.20;100.00
20119;BME280;10220;42.716;23.306;2023-09-19T00:23:38;95622.47;;;17.19;100.00
20119;BME280;10220;42.716;23.306;2023-09-19T00:26:06;95620.66;;;17.19;100.00
20119;BME280;10220;42.716;23.306;2023-09-19T00:28:31;95623.78;;;17.05;100.00
20119;BME280;10220;42.716;23.306;2023-09-19T00:30:57;95609.84;;;17.16;100.00
20119;BME280;10220;42.716;23.306;2023-09-19T00:33:27;95626.47;;;17.21;100.00
20119;BME280;10220;42.716;23.306;2023-09-19T00:35:56;95623.06;;;17.21;100.00
20119;BME280;10220;42.716;23.306;2023-09-19T00:38:22;95605.59;;;16.87;100.00
20119;BME280;10220;42.716;23.306;2023-09-19T00:40:52;95596.75;;;16.77;100.00
20119;BME280;10220;42.716;23.306;2023-09-19T00:43:19;95609.59;;;16.78;100.00
20119;BME280;10220;42.716;23.306;2023-09-19T00:45:46;95616.19;;;16.92;100.00
20119;BME280;10220;42.716;23.306;2023-09-19T00:48:13;95611.72;;;16.93;100.00
20119;BME280;10220;42.716;23.306;2023-09-19T00:50:41;95609.81;;;16.88;100.00
20119;BME280;10220;42.716;23.306;2023-09-19T00:53:07;95613.50;;;17.03;100.00
20119;BME280;10220;42.716;23.306;2023-09-19T00:55:38;95613.09;;;16.95;100.00
20119;BME280;10220;42.716;23.306;2023-09-19T00:58:04;95613.44;;;16.99;100.00
20119;BME280;10220;42.716;23.306;2023-09-19T01:00:36;95618.53;;;17.05;100.00
20119;BME280;10220;42.716;23.306;2023-09-19T01:03:02;95618.75;;;17.03;100.00
20119;BME280;10220;42.716;23.306;2023-09-19T01:05:28;95607.31;;;16.82;100.00
20119;BME280;10220;42.716;23.306;2023-09-19T01:07:54;95597.66;;;16.71;100.00
20119;BME280;10220;42.716;23.306;2023-09-19T01:10:20;95605.38;;;16.89;100.00
20119;BME280;10220;42.716;23.306;2023-09-19T01:29:44;95613.63;;;17.08;100.00
20119;BME280;10220;42.716;23.306;2023-09-19T01:32:13;95615.00;;;17.00;100.00
20119;BME280;10220;42.716;23.306;2023-09-19T01:34:54;95614.72;;;16.85;100.00
20119;BME280;10220;42.716;23.306;2023-09-19T01:37:22;95611.97;;;16.91;100.00
20119;BME280;10220;42.716;23.306;2023-09-19T01:39:58;95615.47;;;16.97;100.00
20119;BME280;10220;42.716;23.306;2023-09-19T01:47:52;95606.47;;;17.04;100.00
20119;BME280;10220;42.716;23.306;2023-09-19T01:50:31;95609.09;;;17.04;100.00
20119;BME280;10220;42.716;23.306;2023-09-19T01:53:05;95615.00;;;17.00;100.00
20119;BME280;10220;42.716;23.306;2023-09-19T01:55:37;95618.91;;;16.97;100.00
20119;BME280;10220;42.716;23.306;2023-09-19T02:00:46;95620.06;;;16.90;100.00
20119;BME280;10220;42.716;23.306;2023-09-19T02:03:13;95622.22;;;16.81;100.00
20119;BME280;10220;42.716;23.306;2023-09-19T02:05:39;95604.59;;;16.88;100.00
20119;BME280;10220;42.716;23.306;2023-09-19T02:08:05;95599.59;;;16.87;100.00
20119;BME280;10220;42.716;23.306;2023-09-19T02:10:30;95603.34;;;16.68;100.00
20119;BME280;10220;42.716;23.306;2023-09-19T02:12:56;95608.03;;;16.54;100.00
20119;BME280;10220;42.716;23.306;2023-09-19T02:15:21;95608.81;;;16.66;100.00
20119;BME280;10220;42.716;23.306;2023-09-19T02:17:47;95606.19;;;16.55;100.00
20119;BME280;10220;42.716;23.306;2023-09-19T02:20:12;95600.72;;;16.68;100.00
20119;BME280;10220;42.716;23.306;2023-09-19T02:22:41;95609.25;;;16.75;100.00
20119;BME280;10220;42.716;23.306;2023-09-19T02:25:07;95602.78;;;16.43;100.00
20119;BME280;10220;42.716;23.306;2023-09-19T02:27:33;95594.84;;;16.49;100.00
20119;BME280;10220;42.716;23.306;2023-09-19T02:29:59;95599.41;;;16.43;100.00
20119;BME280;10220;42.716;23.306;2023-09-19T02:32:27;95600.53;;;16.47;100.00
20119;BME280;10220;42.716;23.306;2023-09-19T02:34:55;95592.09;;;16.33;100.00
20119;BME280;10220;42.716;23.306;2023-09-19T02:37:21;95573.75;;;16.22;100.00
20119;BME280;10220;42.716;23.306;2023-09-19T02:39:46;95579.38;;;16.37;100.00
20119;BME280;10220;42.716;23.306;2023-09-19T02:42:11;95574.84;;;16.32;100.00
20119;BME280;10220;42.716;23.306;2023-09-19T02:44:37;95564.81;;;16.41;100.00
20119;BME280;10220;42.716;23.306;2023-09-19T02:47:03;95575.50;;;16.50;100.00
20119;BME280;10220;42.716;23.306;2023-09-19T02:49:29;95569.81;;;16.42;100.00
20119;BME280;10220;42.716;23.306;2023-09-19T02:51:54;95566.63;;;16.29;100.00
20119;BME280;10220;42.716;23.306;2023-09-19T02:54:20;95573.91;;;16.38;100.00
20119;BME280;10220;42.716;23.306;2023-09-19T02:56:46;95571.06;;;16.40;100.00
20119;BME280;10220;42.716;23.306;2023-09-19T02:59:12;95576.75;;;16.37;100.00
20119;BME280;10220;42.716;23.306;2023-09-19T03:01:38;95579.13;;;16.38;100.00
20119;BME280;10220;42.716;23.306;2023-09-19T03:04:05;95566.75;;;16.34;100.00
20119;BME280;10220;42.716;23.306;2023-09-19T03:06:31;95560.16;;;16.43;100.00
20119;BME280;10220;42.716;23.306;2023-09-19T03:08:57;95559.22;;;16.37;100.00
20119;BME280;10220;42.716;23.306;2023-09-19T03:11:25;95566.06;;;16.49;100.00
20119;BME280;10220;42.716;23.306;2023-09-19T03:13:52;95556.25;;;16.45;100.00
20119;BME280;10220;42.716;23.306;2023-09-19T03:16:17;95557.09;;;16.34;100.00
20119;BME280;10220;42.716;23.306;2023-09-19T03:18:44;95555.84;;;16.37;100.00
20119;BME280;10220;42.716;23.306;2023-09-19T03:21:10;95555.94;;;16.30;100.00
20119;BME280;10220;42.716;23.306;2023-09-19T03:23:35;95549.56;;;16.15;100.00
20119;BME280;10220;42.716;23.306;2023-09-19T03:26:01;95554.53;;;16.16;100.00
20119;BME280;10220;42.716;23.306;2023-09-19T03:28:27;95556.66;;;16.26;100.00
20119;BME280;10220;42.716;23.306;2023-09-19T03:31:04;95547.63;;;15.99;100.00
20119;BME280;10220;42.716;23.306;2023-09-19T03:33:30;95556.25;;;15.99;100.00
20119;BME280;10220;42.716;23.306;2023-09-19T03:35:59;95567.50;;;16.11;100.00
20119;BME280;10220;42.716;23.306;2023-09-19T03:38:29;95560.09;;;15.86;100.00
20119;BME280;10220;42.716;23.306;2023-09-19T03:40:54;95563.06;;;16.00;100.00
20119;BME280;10220;42.716;23.306;2023-09-19T03:43:20;95568.66;;;16.15;100.00
20119;BME280;10220;42.716;23.306;2023-09-19T03:45:45;95575.22;;;16.18;100.00
20119;BME280;10220;42.716;23.306;2023-09-19T03:48:15;95574.78;;;16.21;100.00
20119;BME280;10220;42.716;23.306;2023-09-19T03:50:41;95564.34;;;16.09;100.00
20119;BME280;10220;42.716;23.306;2023-09-19T03:53:06;95577.31;;;16.39;100.00
20119;BME280;10220;42.716;23.306;2023-09-19T03:55:35;95571.22;;;16.84;100.00
20119;BME280;10220;42.716;23.306;2023-09-19T03:58:04;95571.56;;;16.87;100.00
20119;BME280;10220;42.716;23.306;2023-09-19T04:00:30;95582.34;;;17.02;100.00
20119;BME280;10220;42.716;23.306;2023-09-19T04:02:55;95583.50;;;16.95;100.00
20119;BME280;10220;42.716;23.306;2023-09-19T04:05:22;95579.69;;;16.74;100.00
20119;BME280;10220;42.716;23.306;2023-09-19T04:07:48;95580.81;;;16.78;100.00
20119;BME280;10220;42.716;23.306;2023-09-19T04:10:14;95593.63;;;17.03;100.00
20119;BME280;10220;42.716;23.306;2023-09-19T04:12:40;95592.50;;;16.87;100.00
20119;BME280;10220;42.716;23.306;2023-09-19T04:15:06;95605.84;;;16.86;100.00
20119;BME280;10220;42.716;23.306;2023-09-19T04:17:32;95587.66;;;16.56;100.00
20119;BME280;10220;42.716;23.306;2023-09-19T04:20:00;95589.47;;;16.33;100.00
20119;BME280;10220;42.716;23.306;2023-09-19T04:22:26;95581.31;;;16.30;100.00
20119;BME280;10220;42.716;23.306;2023-09-19T04:24:51;95579.91;;;16.16;100.00
20119;BME280;10220;42.716;23.306;2023-09-19T04:27:17;95585.47;;;16.08;100.00
20119;BME280;10220;42.716;23.306;2023-09-19T04:29:44;95574.56;;;16.11;100.00
20119;BME280;10220;42.716;23.306;2023-09-19T04:32:09;95578.69;;;16.30;100.00
20119;BME280;10220;42.716;23.306;2023-09-19T04:34:35;95591.28;;;16.55;100.00
20119;BME280;10220;42.716;23.306;2023-09-19T04:37:01;95580.38;;;16.13;100.00
20119;BME280;10220;42.716;23.306;2023-09-19T04:39:27;95586.97;;;16.27;100.00
20119;BME280;10220;42.716;23.306;2023-09-19T04:41:53;95578.88;;;16.17;100.00
20119;BME280;10220;42.716;23.306;2023-09-19T04:44:27;95588.47;;;16.34;100.00
20119;BME280;10220;42.716;23.306;2023-09-19T04:46:53;95563.97;;;15.83;100.00
20119;BME280;10220;42.716;23.306;2023-09-19T04:49:19;95567.06;;;16.48;100.00
20119;BME280;10220;42.716;23.306;2023-09-19T04:51:44;95573.31;;;16.59;100.00
20119;BME280;10220;42.716;23.306;2023-09-19T04:54:11;95570.34;;;16.78;100.00
20119;BME280;10220;42.716;23.306;2023-09-19T04:56:38;95573.31;;;16.82;100.00
20119;BME280;10220;42.716;23.306;2023-09-19T04:59:07;95575.09;;;16.93;100.00
20119;BME280;10220;42.716;23.306;2023-09-19T05:01:35;95577.69;;;16.93;100.00
20119;BME280;10220;42.716;23.306;2023-09-19T05:04:01;95575.16;;;17.09;100.00
20119;BME280;10220;42.716;23.306;2023-09-19T05:06:55;95571.94;;;17.18;100.00
20119;BME280;10220;42.716;23.306;2023-09-19T05:09:20;95556.22;;;17.18;100.00
20119;BME280;10220;42.716;23.306;2023-09-19T05:11:46;95570.44;;;17.22;100.00
20119;BME280;10220;42.716;23.306;2023-09-19T05:14:12;95556.16;;;17.02;100.00
20119;BME280;10220;42.716;23.306;2023-09-19T05:16:37;95569.94;;;17.09;100.00
20119;BME280;10220;42.716;23.306;2023-09-19T05:19:03;95565.25;;;17.11;100.00
20119;BME280;10220;42.716;23.306;2023-09-19T05:21:30;95577.53;;;17.10;100.00
20119;BME280;10220;42.716;23.306;2023-09-19T05:23:56;95585.03;;;17.18;100.00
20119;BME280;10220;42.716;23.306;2023-09-19T05:26:21;95572.31;;;17.10;100.00
20119;BME280;10220;42.716;23.306;2023-09-19T05:28:47;95573.97;;;17.16;100.00
20119;BME280;10220;42.716;23.306;2023-09-19T05:31:15;95563.19;;;17.24;100.00
20119;BME280;10220;42.716;23.306;2023-09-19T05:34:17;95546.03;;;17.33;100.00
20119;BME280;10220;42.716;23.306;2023-09-19T05:36:43;95543.22;;;17.35;100.00
20119;BME280;10220;42.716;23.306;2023-09-19T05:39:08;95542.25;;;17.41;100.00
20119;BME280;10220;42.716;23.306;2023-09-19T05:41:35;95535.84;;;17.48;100.00
20119;BME280;10220;42.716;23.306;2023-09-19T05:44:05;95537.44;;;17.49;100.00
20119;BME280;10220;42.716;23.306;2023-09-19T05:46:32;95553.22;;;17.54;100.00
20119;BME280;10220;42.716;23.306;2023-09-19T05:48:57;95557.31;;;17.62;100.00
20119;BME280;10220;42.716;23.306;2023-09-19T05:51:23;95553.91;;;17.77;100.00
20119;BME280;10220;42.716;23.306;2023-09-19T05:53:48;95563.94;;;17.80;100.00
20119;BME280;10220;42.716;23.306;2023-09-19T05:56:15;95566.69;;;17.74;100.00
20119;BME280;10220;42.716;23.306;2023-09-19T05:58:41;95555.44;;;17.90;100.00
20119;BME280;10220;42.716;23.306;2023-09-19T06:01:10;95559.38;;;18.09;100.00
20119;BME280;10220;42.716;23.306;2023-09-19T06:03:35;95557.13;;;18.28;100.00
20119;BME280;10220;42.716;23.306;2023-09-19T06:06:04;95549.53;;;18.32;100.00
20119;BME280;10220;42.716;23.306;2023-09-19T06:08:32;95519.97;;;18.36;100.00
20119;BME280;10220;42.716;23.306;2023-09-19T06:10:59;95540.09;;;18.69;100.00
20119;BME280;10220;42.716;23.306;2023-09-19T06:13:24;95549.25;;;18.66;100.00
20119;BME280;10220;42.716;23.306;2023-09-19T06:15:52;95547.53;;;18.55;100.00
20119;BME280;10220;42.716;23.306;2023-09-19T06:18:17;95544.44;;;19.01;100.00
20119;BME280;10220;42.716;23.306;2023-09-19T06:20:46;95538.44;;;18.84;100.00
20119;BME280;10220;42.716;23.306;2023-09-19T06:23:12;95548.41;;;18.82;100.00
20119;BME280;10220;42.716;23.306;2023-09-19T06:25:38;95547.00;;;18.96;100.00
20119;BME280;10220;42.716;23.306;2023-09-19T06:28:04;95534.97;;;19.00;100.00
20119;BME280;10220;42.716;23.306;2023-09-19T06:30:30;95543.50;;;19.07;100.00
20119;BME280;10220;42.716;23.306;2023-09-19T06:33:00;95534.06;;;19.11;100.00
20119;BME280;10220;42.716;23.306;2023-09-19T06:35:32;95545.75;;;19.20;100.00
20119;BME280;10220;42.716;23.306;2023-09-19T06:37:58;95553.25;;;19.33;100.00
20119;BME280;10220;42.716;23.306;2023-09-19T06:40:23;95545.50;;;19.21;100.00
20119;BME280;10220;42.716;23.306;2023-09-19T06:42:53;95540.53;;;19.25;100.00
20119;BME280;10220;42.716;23.306;2023-09-19T06:45:19;95539.84;;;18.91;100.00
20119;BME280;10220;42.716;23.306;2023-09-19T06:47:47;95543.50;;;19.33;100.00
20119;BME280;10220;42.716;23.306;2023-09-19T06:50:20;95550.56;;;19.28;100.00
20119;BME280;10220;42.716;23.306;2023-09-19T06:52:48;95551.66;;;19.32;100.00
20119;BME280;10220;42.716;23.306;2023-09-19T06:55:21;95553.31;;;19.16;100.00
20119;BME280;10220;42.716;23.306;2023-09-19T06:57:49;95554.66;;;19.19;100.00
20119;BME280;10220;42.716;23.306;2023-09-19T07:00:15;95557.47;;;19.34;100.00
20119;BME280;10220;42.716;23.306;2023-09-19T07:03:06;95555.34;;;19.09;100.00
20119;BME280;10220;42.716;23.306;2023-09-19T07:05:39;95562.91;;;19.27;100.00
20119;BME280;10220;42.716;23.306;2023-09-19T07:08:06;95556.63;;;19.07;100.00
20119;BME280;10220;42.716;23.306;2023-09-19T07:10:32;95559.13;;;19.18;100.00
20119;BME280;10220;42.716;23.306;2023-09-19T07:13:06;95557.47;;;19.34;100.00
20119;BME280;10220;42.716;23.306;2023-09-19T07:15:36;95552.09;;;19.24;100.00
20119;BME280;10220;42.716;23.306;2023-09-19T07:18:05;95567.22;;;19.38;100.00
20119;BME280;10220;42.716;23.306;2023-09-19T07:20:32;95555.94;;;19.38;100.00
20119;BME280;10220;42.716;23.306;2023-09-19T07:23:00;95556.38;;;19.30;100.00
20119;BME280;10220;42.716;23.306;2023-09-19T07:25:27;95556.06;;;19.26;100.00
20119;BME280;10220;42.716;23.306;2023-09-19T07:27:55;95552.16;;;19.29;100.00
20119;BME280;10220;42.716;23.306;2023-09-19T07:30:20;95564.91;;;19.68;100.00
20119;BME280;10220;42.716;23.306;2023-09-19T07:32:48;95563.97;;;19.52;100.00
20119;BME280;10220;42.716;23.306;2023-09-19T07:35:14;95561.69;;;19.61;100.00
20119;BME280;10220;42.716;23.306;2023-09-19T07:37:40;95543.06;;;19.41;100.00
20119;BME280;10220;42.716;23.306;2023-09-19T07:40:06;95559.19;;;19.49;100.00
20119;BME280;10220;42.716;23.306;2023-09-19T07:42:35;95550.75;;;20.00;100.00
20119;BME280;10220;42.716;23.306;2023-09-19T07:45:04;95557.38;;;20.44;100.00
20119;BME280;10220;42.716;23.306;2023-09-19T07:47:30;95556.00;;;20.31;100.00
20119;BME280;10220;42.716;23.306;2023-09-19T07:49:58;95561.09;;;20.48;100.00
20119;BME280;10220;42.716;23.306;2023-09-19T07:52:24;95563.38;;;20.34;100.00
20119;BME280;10220;42.716;23.306;2023-09-19T07:54:49;95567.69;;;20.50;100.00
20119;BME280;10220;42.716;23.306;2023-09-19T07:57:15;95567.34;;;20.37;100.00
20119;BME280;10220;42.716;23.306;2023-09-19T07:59:41;95573.16;;;20.39;100.00
20119;BME280;10220;42.716;23.306;2023-09-19T08:02:10;95566.66;;;19.89;100.00
20119;BME280;10220;42.716;23.306;2023-09-19T08:04:45;95560.19;;;19.70;100.00
20119;BME280;10220;42.716;23.306;2023-09-19T08:07:14;95544.94;;;19.98;100.00
20119;BME280;10220;42.716;23.306;2023-09-19T08:09:40;95532.59;;;20.40;100.00
20119;BME280;10220;42.716;23.306;2023-09-19T08:12:06;95545.44;;;20.67;100.00
20119;BME280;10220;42.716;23.306;2023-09-19T08:17:52;95521.94;;;20.61;100.00
20119;BME280;10220;42.716;23.306;2023-09-19T08:20:18;95510.88;;;20.59;100.00
20119;BME280;10220;42.716;23.306;2023-09-19T08:22:50;95545.06;;;20.95;100.00
20119;BME280;10220;42.716;23.306;2023-09-19T08:25:18;95526.84;;;20.89;100.00
20119;BME280;10220;42.716;23.306;2023-09-19T08:27:45;95513.50;;;21.05;100.00
20119;BME280;10220;42.716;23.306;2023-09-19T08:30:18;95533.47;;;20.96;100.00
20119;BME280;10220;42.716;23.306;2023-09-19T08:33:02;95530.53;;;20.88;100.00
20119;BME280;10220;42.716;23.306;2023-09-19T08:35:30;95537.06;;;20.75;100.00
20119;BME280;10220;42.716;23.306;2023-09-19T08:37:56;95549.06;;;21.08;100.00
20119;BME280;10220;42.716;23.306;2023-09-19T08:40:22;95552.41;;;20.88;100.00
20119;BME280;10220;42.716;23.306;2023-09-19T08:42:54;95527.00;;;20.67;100.00
20119;BME280;10220;42.716;23.306;2023-09-19T08:45:21;95521.63;;;20.99;100.00
20119;BME280;10220;42.716;23.306;2023-09-19T08:51:02;95522.75;;;21.23;100.00
20119;BME280;10220;42.716;23.306;2023-09-19T08:56:47;95507.72;;;21.13;100.00
20119;BME280;10220;42.716;23.306;2023-09-19T09:02:20;95505.63;;;21.20;100.00
20119;BME280;10220;42.716;23.306;2023-09-19T09:04:46;95515.66;;;21.23;100.00
20119;BME280;10220;42.716;23.306;2023-09-19T09:07:13;95522.28;;;21.40;100.00
20119;BME280;10220;42.716;23.306;2023-09-19T09:09:39;95529.31;;;21.10;100.00
20119;BME280;10220;42.716;23.306;2023-09-19T09:12:14;95509.44;;;21.79;100.00
20119;BME280;10220;42.716;23.306;2023-09-19T09:14:44;95510.50;;;21.68;100.00
20119;BME280;10220;42.716;23.306;2023-09-19T09:17:11;95512.00;;;21.49;100.00
20119;BME280;10220;42.716;23.306;2023-09-19T09:19:46;95503.38;;;21.78;100.00
20119;BME280;10220;42.716;23.306;2023-09-19T09:22:39;95486.22;;;21.85;100.00
20119;BME280;10220;42.716;23.306;2023-09-19T09:25:15;95483.03;;;22.08;100.00
20119;BME280;10220;42.716;23.306;2023-09-19T09:27:48;95488.56;;;22.27;99.90
20119;BME280;10220;42.716;23.306;2023-09-19T09:30:47;95495.72;;;22.26;100.00
20119;BME280;10220;42.716;23.306;2023-09-19T09:40:19;95474.91;;;22.88;92.47
20119;BME280;10220;42.716;23.306;2023-09-19T09:43:28;95481.59;;;22.75;94.39
20119;BME280;10220;42.716;23.306;2023-09-19T09:46:48;95471.91;;;22.46;93.89
20119;BME280;10220;42.716;23.306;2023-09-19T09:49:29;95443.44;;;22.08;97.40
20119;BME280;10220;42.716;23.306;2023-09-19T09:52:30;95465.34;;;22.29;99.27
20119;BME280;10220;42.716;23.306;2023-09-19T09:58:49;95466.63;;;22.46;98.07
20119;BME280;10220;42.716;23.306;2023-09-19T10:01:15;95448.19;;;22.31;94.86
20119;BME280;10220;42.716;23.306;2023-09-19T10:03:42;95471.69;;;22.28;95.97
20119;BME280;10220;42.716;23.306;2023-09-19T10:06:16;95455.28;;;22.41;95.47
20119;BME280;10220;42.716;23.306;2023-09-19T10:09:07;95458.38;;;22.62;94.17
20119;BME280;10220;42.716;23.306;2023-09-19T10:11:57;95459.41;;;22.71;93.71
20119;BME280;10220;42.716;23.306;2023-09-19T10:14:47;95450.81;;;22.31;94.82
20119;BME280;10220;42.716;23.306;2023-09-19T10:21:17;95415.66;;;22.36;95.04
20119;BME280;10220;42.716;23.306;2023-09-19T10:23:54;95414.81;;;22.50;93.24
20119;BME280;10220;42.716;23.306;2023-09-19T10:26:23;95434.50;;;22.87;91.66
20119;BME280;10220;42.716;23.306;2023-09-19T10:39:04;95404.84;;;23.00;90.44
20119;BME280;10220;42.716;23.306;2023-09-19T10:41:53;95433.16;;;22.90;90.42
20119;BME280;10220;42.716;23.306;2023-09-19T10:44:52;95428.53;;;23.15;89.50
20119;BME280;10220;42.716;23.306;2023-09-19T10:50:36;95422.06;;;23.36;87.56
20119;BME280;10220;42.716;23.306;2023-09-19T10:53:19;95406.59;;;23.14;87.89
20119;BME280;10220;42.716;23.306;2023-09-19T10:59:26;95409.50;;;23.18;89.25
20119;BME280;10220;42.716;23.306;2023-09-19T11:02:00;95405.88;;;23.04;90.88
20119;BME280;10220;42.716;23.306;2023-09-19T11:04:52;95414.53;;;23.14;91.71
20119;BME280;10220;42.716;23.306;2023-09-19T11:07:27;95397.19;;;22.94;94.35
20119;BME280;10220;42.716;23.306;2023-09-19T11:10:18;95391.81;;;23.08;90.77
20119;BME280;10220;42.716;23.306;2023-09-19T11:13:23;95419.69;;;23.34;90.03
20119;BME280;10220;42.716;23.306;2023-09-19T11:18:56;95413.03;;;23.42;89.89
20119;BME280;10220;42.716;23.306;2023-09-19T11:21:58;95404.16;;;23.61;87.93
20119;BME280;10220;42.716;23.306;2023-09-19T11:24:31;95389.59;;;23.25;89.82
20119;BME280;10220;42.716;23.306;2023-09-19T11:30:49;95371.03;;;23.30;91.25
20119;BME280;10220;42.716;23.306;2023-09-19T11:40:44;95379.19;;;23.39;87.75
20119;BME280;10220;42.716;23.306;2023-09-19T11:43:39;95367.94;;;23.85;86.88
20119;BME280;10220;42.716;23.306;2023-09-19T11:46:27;95360.97;;;23.94;87.58
20119;BME280;10220;42.716;23.306;2023-09-19T11:53:02;95371.53;;;23.99;86.80
20119;BME280;10220;42.716;23.306;2023-09-19T11:55:49;95326.53;;;23.65;85.05
20119;BME280;10220;42.716;23.306;2023-09-19T11:58:37;95361.09;;;24.07;85.89
20119;BME280;10220;42.716;23.306;2023-09-19T12:01:31;95316.63;;;24.04;83.50
20119;BME280;10220;42.716;23.306;2023-09-19T12:10:56;95320.31;;;24.08;81.90
20119;BME280;10220;42.716;23.306;2023-09-19T12:13:21;95320.19;;;23.95;83.85
20119;BME280;10220;42.716;23.306;2023-09-19T12:15:50;95316.94;;;24.03;86.08
20119;BME280;10220;42.716;23.306;2023-09-19T12:18:28;95308.88;;;23.61;85.47
20119;BME280;10220;42.716;23.306;2023-09-19T12:20:57;95297.13;;;23.72;87.91
20119;BME280;10220;42.716;23.306;2023-09-19T12:23:27;95328.47;;;24.12;87.00
20119;BME280;10220;42.716;23.306;2023-09-19T12:25:54;95307.63;;;24.05;85.17
20119;BME280;10220;42.716;23.306;2023-09-19T12:28:27;95316.28;;;24.34;84.88
20119;BME280;10220;42.716;23.306;2023-09-19T12:31:09;95288.94;;;24.38;84.00
20119;BME280;10220;42.716;23.306;2023-09-19T12:33:34;95273.16;;;24.28;82.21
20119;BME280;10220;42.716;23.306;2023-09-19T12:36:22;95289.69;;;24.21;83.72
20119;BME280;10220;42.716;23.306;2023-09-19T12:38:54;95284.50;;;24.34;83.18
20119;BME280;10220;42.716;23.306;2023-09-19T12:41:20;95273.53;;;24.22;82.53
20119;BME280;10220;42.716;23.306;2023-09-19T12:44:11;95297.44;;;24.35;84.43
20119;BME280;10220;42.716;23.306;2023-09-19T12:47:00;95301.66;;;24.41;84.07
20119;BME280;10220;42.716;23.306;2023-09-19T12:52:38;95279.66;;;24.41;84.42
20119;BME280;10220;42.716;23.306;2023-09-19T12:55:04;95295.28;;;24.61;82.22
20119;BME280;10220;42.716;23.306;2023-09-19T12:57:35;95270.34;;;24.43;82.23
20119;BME280;10220;42.716;23.306;2023-09-19T13:00:11;95245.78;;;24.38;83.98
20119;BME280;10220;42.716;23.306;2023-09-19T13:02:37;95270.44;;;24.75;80.75
20119;BME280;10220;42.716;23.306;2023-09-19T13:09:07;95279.50;;;24.87;78.99
20119;BME280;10220;42.716;23.306;2023-09-19T13:11:50;95263.97;;;24.81;80.78
20119;BME280;10220;42.716;23.306;2023-09-19T13:14:36;95232.94;;;24.63;79.74
20119;BME280;10220;42.716;23.306;2023-09-19T13:17:18;95249.59;;;24.69;79.83
20119;BME280;10220;42.716;23.306;2023-09-19T13:19:58;95238.69;;;24.70;79.26
20119;BME280;10220;42.716;23.306;2023-09-19T13:25:46;95260.28;;;24.95;78.36
20119;BME280;10220;42.716;23.306;2023-09-19T13:28:13;95247.81;;;24.96;79.38
20119;BME280;10220;42.716;23.306;2023-09-19T13:44:08;95214.91;;;24.97;77.21
20119;BME280;10220;42.716;23.306;2023-09-19T13:46:53;95228.03;;;25.07;76.59
20119;BME280;10220;42.716;23.306;2023-09-19T13:49:33;95205.94;;;24.93;77.16
20119;BME280;10220;42.716;23.306;2023-09-19T13:52:11;95209.22;;;25.03;76.49
20119;BME280;10220;42.716;23.306;2023-09-19T13:54:38;95203.31;;;24.93;77.99
20119;BME280;10220;42.716;23.306;2023-09-19T13:57:03;95228.75;;;24.94;79.84
20119;BME280;10220;42.716;23.306;2023-09-19T13:59:30;95248.78;;;25.05;78.42
20119;BME280;10220;42.716;23.306;2023-09-19T14:01:56;95240.41;;;25.11;77.28
20119;BME280;10220;42.716;23.306;2023-09-19T14:04:22;95226.59;;;25.14;77.29
20119;BME280;10220;42.716;23.306;2023-09-19T14:06:48;95234.84;;;25.13;78.59
20119;BME280;10220;42.716;23.306;2023-09-19T14:09:13;95237.63;;;25.03;79.15
20119;BME280;10220;42.716;23.306;2023-09-19T14:11:50;95229.44;;;24.99;79.12
20119;BME280;10220;42.716;23.306;2023-09-19T14:14:18;95243.00;;;25.16;78.93
20119;BME280;10220;42.716;23.306;2023-09-19T14:16:53;95240.25;;;25.21;78.31
20119;BME280;10220;42.716;23.306;2023-09-19T14:19:34;95250.09;;;25.21;79.94
20119;BME280;10220;42.716;23.306;2023-09-19T14:22:01;95234.94;;;25.21;79.77
20119;BME280;10220;42.716;23.306;2023-09-19T14:24:38;95205.00;;;25.02;78.76
20119;BME280;10220;42.716;23.306;2023-09-19T14:27:04;95233.97;;;25.17;79.96
20119;BME280;10220;42.716;23.306;2023-09-19T14:29:31;95229.72;;;25.16;80.99
20119;BME280;10220;42.716;23.306;2023-09-19T14:31:57;95199.19;;;25.00;79.47
20119;BME280;10220;42.716;23.306;2023-09-19T14:34:22;95186.31;;;24.94;79.75
20119;BME280;10220;42.716;23.306;2023-09-19T14:36:48;95226.22;;;25.21;79.58
20119;BME280;10220;42.716;23.306;2023-09-19T14:39:14;95219.56;;;25.37;78.93
20119;BME280;10220;42.716;23.306;2023-09-19T14:41:39;95222.91;;;25.42;78.14
20119;BME280;10220;42.716;23.306;2023-09-19T14:44:05;95211.19;;;25.30;77.56
20119;BME280;10220;42.716;23.306;2023-09-19T14:46:31;95197.22;;;25.24;77.91
20119;BME280;10220;42.716;23.306;2023-09-19T14:52:42;95206.38;;;25.32;77.37
20119;BME280;10220;42.716;23.306;2023-09-19T14:55:09;95207.56;;;25.26;77.57
20119;BME280;10220;42.716;23.306;2023-09-19T14:57:39;95211.47;;;25.28;78.19
20119;BME280;10220;42.716;23.306;2023-09-19T15:00:06;95216.66;;;25.20;78.72
20119;BME280;10220;42.716;23.306;2023-09-19T15:02:37;95187.75;;;25.05;77.95